createdAt,value
2023-03-31T00:01:00.700Z,8.99
2023-03-31T00:06:05.923Z,9.02
2023-03-31T00:11:11.993Z,9.05
2023-03-31T00:16:17.768Z,9.07
2023-03-31T00:21:29.906Z,9.09
2023-03-31T00:26:35.226Z,9.05
2023-03-31T00:31:41.530Z,9.06
2023-03-31T00:36:47.824Z,8.99
2023-03-31T00:41:52.279Z,8.90
2023-03-31T00:47:02.536Z,8.81
2023-03-31T00:52:08.990Z,8.77
2023-03-31T00:57:13.600Z,8.76
2023-03-31T01:02:20.798Z,8.79
2023-03-31T01:07:28.117Z,8.73
2023-03-31T01:12:34.426Z,8.76
2023-03-31T01:17:44.846Z,8.78
2023-03-31T01:23:24.436Z,8.68
2023-03-31T01:28:37.955Z,8.54
2023-03-31T01:34:23.542Z,8.46
2023-03-31T01:40:01.970Z,8.31
2023-03-31T01:45:16.846Z,8.18
2023-03-31T01:50:25.846Z,8.15
2023-03-31T01:55:36.653Z,8.03
2023-03-31T02:00:44.758Z,7.96
2023-03-31T02:05:52.594Z,7.93
2023-03-31T02:10:59.454Z,7.86
2023-03-31T02:16:09.078Z,7.75
2023-03-31T02:21:14.750Z,7.74
2023-03-31T02:26:24.876Z,7.77
2023-03-31T02:31:34.307Z,7.82
2023-03-31T02:36:38.545Z,7.82
2023-03-31T02:41:46.949Z,7.80
2023-03-31T02:46:51.013Z,7.76
2023-03-31T02:52:20.061Z,7.77
2023-03-31T02:57:50.955Z,7.76
2023-03-31T03:03:08.000Z,7.66
2023-03-31T03:08:20.460Z,7.64
2023-03-31T03:13:32.646Z,7.49
2023-03-31T03:18:38.527Z,7.45
2023-03-31T03:23:43.329Z,7.43
2023-03-31T03:28:49.099Z,7.45
2023-03-31T03:33:53.740Z,7.52
2023-03-31T03:38:57.998Z,7.57
2023-03-31T03:44:03.774Z,7.54
2023-03-31T03:49:07.977Z,7.48
2023-03-31T03:54:12.035Z,7.40
2023-03-31T03:59:17.386Z,7.35
2023-03-31T04:04:21.565Z,7.30
2023-03-31T04:09:26.052Z,7.18
2023-03-31T04:14:31.554Z,7.14
2023-03-31T04:19:35.505Z,7.10
2023-03-31T04:24:39.550Z,7.09
2023-03-31T04:29:54.661Z,7.17
2023-03-31T04:35:05.016Z,7.25
2023-03-31T04:40:10.800Z,7.29
2023-03-31T04:45:16.468Z,7.38
2023-03-31T04:50:21.002Z,7.39
2023-03-31T04:55:25.083Z,7.45
2023-03-31T05:00:32.188Z,7.50
2023-03-31T05:05:36.257Z,7.60
2023-03-31T05:10:40.255Z,7.62
2023-03-31T05:15:48.101Z,7.72
2023-03-31T05:20:52.456Z,7.81
2023-03-31T05:25:56.651Z,7.88
2023-03-31T05:31:02.787Z,7.93
2023-03-31T05:36:07.719Z,8.01
2023-03-31T05:41:13.126Z,8.12
2023-03-31T05:46:18.821Z,8.23
2023-03-31T05:51:23.168Z,8.35
2023-03-31T05:56:27.954Z,8.51
2023-03-31T06:01:33.652Z,8.75
2023-03-31T06:06:38.143Z,9.02
2023-03-31T06:11:43.255Z,9.20
2023-03-31T06:16:49.375Z,9.31
2023-03-31T06:21:57.053Z,9.43
2023-03-31T06:27:01.413Z,9.59
2023-03-31T06:32:06.979Z,9.73
2023-03-31T06:37:11.450Z,9.90
2023-03-31T06:42:15.861Z,9.94
2023-03-31T06:47:21.507Z,10.13
2023-03-31T06:52:25.453Z,10.03
2023-03-31T06:57:29.796Z,9.92
2023-03-31T07:02:35.313Z,10.12
2023-03-31T07:07:40.361Z,10.61
2023-03-31T07:12:44.723Z,10.77
2023-03-31T07:17:53.985Z,11.00
2023-03-31T07:22:58.762Z,11.28
2023-03-31T07:28:02.777Z,11.48
2023-03-31T07:33:08.698Z,11.87
2023-03-31T07:38:14.668Z,12.02
2023-03-31T07:43:18.627Z,12.22
2023-03-31T07:48:23.948Z,12.35
2023-03-31T07:53:28.113Z,12.44
2023-03-31T07:58:32.262Z,12.63
2023-03-31T08:03:37.755Z,12.82
2023-03-31T08:08:43.364Z,12.75
2023-03-31T08:13:47.543Z,12.93
2023-03-31T08:18:53.050Z,12.90
2023-03-31T08:23:57.687Z,12.94
2023-03-31T08:29:01.952Z,12.90
2023-03-31T08:34:07.629Z,12.93
2023-03-31T08:39:11.762Z,13.12
2023-03-31T08:44:19.165Z,13.43
2023-03-31T08:49:25.340Z,13.56
2023-03-31T08:54:33.863Z,13.60
2023-03-31T08:59:39.249Z,13.95
2023-03-31T09:05:18.605Z,14.04
2023-03-31T09:10:33.669Z,13.88
2023-03-31T09:15:42.512Z,13.98
2023-03-31T09:20:50.654Z,13.93
2023-03-31T09:25:55.319Z,14.16
2023-03-31T09:30:59.598Z,14.03
2023-03-31T09:36:15.063Z,14.29
2023-03-31T09:41:20.171Z,14.33
2023-03-31T09:46:31.570Z,14.27
2023-03-31T09:51:38.998Z,13.99
2023-03-31T09:56:49.239Z,14.21
2023-03-31T10:01:59.153Z,14.60
2023-03-31T10:07:06.772Z,14.82
2023-03-31T10:12:17.587Z,15.12
2023-03-31T10:17:23.289Z,15.29
2023-03-31T10:22:32.566Z,15.63
2023-03-31T10:27:40.684Z,15.88
2023-03-31T10:32:48.074Z,15.84
2023-03-31T10:37:59.896Z,15.74
2023-03-31T10:43:10.124Z,15.50
2023-03-31T10:48:20.451Z,15.67
2023-03-31T10:53:25.741Z,15.69
2023-03-31T10:59:02.051Z,16.07
2023-03-31T11:04:28.242Z,16.25
2023-03-31T11:09:43.134Z,16.38
2023-03-31T11:14:55.861Z,16.13
2023-03-31T11:20:07.000Z,16.34
2023-03-31T11:25:35.416Z,15.90
2023-03-31T11:30:43.351Z,15.53
2023-03-31T11:35:56.947Z,15.46
2023-03-31T11:41:06.786Z,15.27
2023-03-31T11:46:14.706Z,15.42
2023-03-31T11:51:22.518Z,16.30
2023-03-31T11:56:32.035Z,17.10
2023-03-31T12:01:42.880Z,17.25
2023-03-31T12:06:49.371Z,17.31
2023-03-31T12:11:58.712Z,17.52
2023-03-31T12:17:06.358Z,17.41
2023-03-31T12:22:15.500Z,16.84
2023-03-31T12:27:25.135Z,16.39
2023-03-31T12:32:32.535Z,16.53
2023-03-31T12:38:11.635Z,16.30
2023-03-31T12:43:51.054Z,15.89
2023-03-31T12:49:09.557Z,15.74
2023-03-31T12:54:26.050Z,15.62
2023-03-31T12:59:33.152Z,15.63
2023-03-31T13:04:39.128Z,15.48
2023-03-31T13:09:52.366Z,15.58
2023-03-31T13:15:00.093Z,15.51
2023-03-31T13:20:25.797Z,15.38
2023-03-31T13:25:51.785Z,15.37
2023-03-31T13:30:58.861Z,15.44
2023-03-31T13:36:41.864Z,15.50
2023-03-31T13:41:56.359Z,15.21
2023-03-31T13:47:35.957Z,15.03
2023-03-31T13:52:50.913Z,14.21
2023-03-31T13:58:38.857Z,12.98
2023-03-31T14:04:01.015Z,12.25
2023-03-31T14:09:08.832Z,11.99
2023-03-31T14:14:15.621Z,12.03
2023-03-31T14:19:34.912Z,11.98
2023-03-31T14:24:47.020Z,12.12
2023-03-31T14:29:57.934Z,12.24
2023-03-31T14:35:13.883Z,12.53
2023-03-31T14:40:20.305Z,13.02
2023-03-31T14:45:26.474Z,13.43
2023-03-31T14:50:32.672Z,13.75
2023-03-31T14:55:54.180Z,13.63
2023-03-31T15:01:02.202Z,13.57
2023-03-31T15:06:07.109Z,13.19
2023-03-31T15:11:19.194Z,13.02
2023-03-31T15:16:42.053Z,12.67
2023-03-31T15:21:47.062Z,12.56
2023-03-31T15:26:58.244Z,12.36
2023-03-31T15:32:02.571Z,12.18
2023-03-31T15:37:08.393Z,12.00
2023-03-31T15:42:13.990Z,11.86
2023-03-31T15:47:20.140Z,11.78
2023-03-31T15:52:35.015Z,11.82
2023-03-31T15:57:45.401Z,11.81
2023-03-31T16:02:49.707Z,11.85
2023-03-31T16:07:53.669Z,11.98
2023-03-31T16:13:02.780Z,11.87
2023-03-31T16:18:12.120Z,11.81
2023-03-31T16:23:18.570Z,11.64
2023-03-31T16:28:26.833Z,11.59
2023-03-31T16:33:31.902Z,11.53
2023-03-31T16:38:35.773Z,11.47
2023-03-31T16:43:41.556Z,11.39
2023-03-31T16:48:45.935Z,11.29
2023-03-31T16:53:50.273Z,11.25
2023-03-31T16:58:56.562Z,11.18
2023-03-31T17:04:00.946Z,11.16
2023-03-31T17:09:05.159Z,11.03
2023-03-31T17:14:11.070Z,11.01
2023-03-31T17:19:17.311Z,10.90
2023-03-31T17:24:22.310Z,10.60
2023-03-31T17:29:28.634Z,10.44
2023-03-31T17:34:32.512Z,10.40
2023-03-31T17:39:36.741Z,10.38
2023-03-31T17:44:42.338Z,10.38
2023-03-31T17:49:46.340Z,10.24
2023-03-31T17:54:50.885Z,10.10
2023-03-31T17:59:56.905Z,9.93
2023-03-31T18:05:01.116Z,9.84
2023-03-31T18:10:08.769Z,9.76
2023-03-31T18:15:14.887Z,9.72
2023-03-31T18:20:19.317Z,9.70
2023-03-31T18:25:23.496Z,9.69
2023-03-31T18:30:28.916Z,9.59
2023-03-31T18:35:33.353Z,9.53
2023-03-31T18:40:37.746Z,9.44
2023-03-31T18:45:44.021Z,9.41
2023-03-31T18:50:49.924Z,9.42
2023-03-31T18:55:55.816Z,9.45
2023-03-31T19:01:02.325Z,9.45
2023-03-31T19:06:10.231Z,9.45
2023-03-31T19:11:16.081Z,9.45
2023-03-31T19:16:21.736Z,9.42
2023-03-31T19:21:27.110Z,9.39
2023-03-31T19:26:31.330Z,9.32
2023-03-31T19:31:40.587Z,9.33
2023-03-31T19:36:48.313Z,9.31
2023-03-31T19:41:52.364Z,9.24
2023-03-31T19:46:58.738Z,9.14
2023-03-31T19:52:02.830Z,9.06
2023-03-31T19:57:09.126Z,8.94
2023-03-31T20:02:15.137Z,8.86
2023-03-31T20:07:19.676Z,8.82
2023-03-31T20:12:23.799Z,8.77
2023-03-31T20:17:29.283Z,8.77
2023-03-31T20:22:33.989Z,8.71
2023-03-31T20:27:38.299Z,8.60
2023-03-31T20:32:44.004Z,8.58
2023-03-31T20:37:48.497Z,8.47
2023-03-31T20:42:54.120Z,8.39
2023-03-31T20:47:59.504Z,8.27
2023-03-31T20:53:03.549Z,8.10
2023-03-31T20:58:07.658Z,8.08
2023-03-31T21:03:13.401Z,8.02
2023-03-31T21:08:17.394Z,7.94
2023-03-31T21:13:21.681Z,7.87
2023-03-31T21:18:27.937Z,7.82
2023-03-31T21:23:32.330Z,7.76
2023-03-31T21:28:37.778Z,7.69
2023-03-31T21:33:44.862Z,7.64
2023-03-31T21:38:49.309Z,7.62
2023-03-31T21:43:54.511Z,7.64
2023-03-31T21:49:02.046Z,7.76
2023-03-31T21:54:06.935Z,7.84
2023-03-31T21:59:11.142Z,7.81
2023-03-31T22:04:17.247Z,7.82
2023-03-31T22:09:21.728Z,7.81
2023-03-31T22:14:26.102Z,7.79
2023-03-31T22:19:31.701Z,7.81
2023-03-31T22:24:36.046Z,7.84
2023-03-31T22:29:40.620Z,7.78
2023-03-31T22:34:46.518Z,7.76
2023-03-31T22:39:50.637Z,7.74
2023-03-31T22:44:54.669Z,7.68
2023-03-31T22:49:59.928Z,7.61
2023-03-31T22:55:04.153Z,7.61
2023-03-31T23:00:11.227Z,7.55
2023-03-31T23:05:16.921Z,7.49
2023-03-31T23:10:21.244Z,7.42
2023-03-31T23:15:25.107Z,7.36
2023-03-31T23:20:31.031Z,7.36
2023-03-31T23:25:35.670Z,7.31
2023-03-31T23:30:40.144Z,7.24
2023-03-31T23:35:45.792Z,7.21
2023-03-31T23:40:49.666Z,7.16
2023-03-31T23:45:53.722Z,7.16
2023-03-31T23:50:58.995Z,7.11
2023-03-31T23:56:05.085Z,7.08
